Time;durP1;ratioP1;P1;durP2;ratioP2;P2;SDS_P1;SDS_P2;PMS_P1;PMS_P2;Temp;Humidity;BMP_temperature;BMP_pressure;BME280_temperature;BME280_humidity;BME280_pressure;Samples;Min_cycle;Max_cycle;Signal;HPM_P1;HPM_P2
2022/03/16 00:00:36;;;;;;;90.32;34.83;;;7.20;99.90;;;;;;5061190;28;20246;-89
2022/03/16 00:03:35;;;;;;;92.03;36.53;;;7.40;99.90;;;;;;5026455;28;20681;-89
2022/03/16 00:06:03;;;;;;;90.85;37.42;;;7.20;99.90;;;;;;5052267;28;20192;-88
2022/03/16 00:08:51;;;;;;;;;;;;;;;;;;;;;
2022/03/16 00:11:49;;;;;;;84.03;35.00;;;7.70;99.90;;;;;;5063864;28;20260;-88
2022/03/16 00:14:49;;;;;;;82.03;33.15;;;7.60;99.90;;;;;;5041144;28;20208;-88
2022/03/16 00:20:32;;;;;;;79.95;35.88;;;7.90;99.90;;;;;;5048226;28;20185;-88
2022/03/16 00:23:22;;;;;;;77.00;32.90;;;7.90;99.90;;;;;;5022753;28;20255;-89
2022/03/16 00:26:08;;;;;;;93.30;36.83;;;7.60;99.90;;;;;;5016094;28;20543;-88
2022/03/16 00:29:28;;;;;;;;;;;;;;;;;;;;;
2022/03/16 00:32:14;;;;;;;102.10;38.17;;;9.00;99.90;;;;;;5026035;28;20723;-88
2022/03/16 00:34:42;;;;;;;104.40;36.50;;;7.40;99.90;;;;;;5031378;28;20193;-88
2022/03/16 00:37:08;;;;;;;103.70;38.28;;;;;;;;;;5037619;28;20205;-89
2022/03/16 00:39:34;;;;;;;105.27;38.00;;;;;;;;;;5035207;28;20193;-89
2022/03/16 00:42:00;;;;;;;108.07;40.22;;;7.20;99.90;;;;;;5014849;28;20452;-89
2022/03/16 00:44:28;;;;;;;101.80;38.97;;;10.40;99.90;;;;;;5015889;28;20298;-89
2022/03/16 00:46:54;;;;;;;108.85;40.47;;;;;;;;;;5018568;28;20174;-87
2022/03/16 00:49:23;;;;;;;117.78;39.67;;;;;;;;;;5015722;28;20193;-87
2022/03/16 00:51:54;;;;;;;109.57;40.88;;;7.20;99.90;;;;;;5035255;28;20205;-91
2022/03/16 00:54:21;;;;;;;98.72;39.33;;;;;;;;;;5018029;28;20194;-88
2022/03/16 00:56:49;;;;;;;105.28;40.25;;;7.30;99.90;;;;;;5017049;28;20280;-89
2022/03/16 00:59:58;;;;;;;;;;;;;;;;;;;;;
2022/03/16 01:06:31;;;;;;;98.22;38.25;;;7.40;99.90;;;;;;4923094;29;20605;-90
2022/03/16 01:12:12;;;;;;;114.57;43.25;;;7.50;99.90;;;;;;5034585;28;20730;-88
2022/03/16 01:14:44;;;;;;;110.00;39.13;;;7.80;99.90;;;;;;5018335;28;20200;-89
2022/03/16 01:17:29;;;;;;;;;;;;;;;;;;;;;
2022/03/16 01:19:59;;;;;;;99.00;36.08;;;;;;;;;;5036865;28;20244;-89
2022/03/16 01:22:30;;;;;;;76.43;33.97;;;7.70;99.90;;;;;;5018216;28;20276;-89
2022/03/16 01:25:01;;;;;;;80.57;34.17;;;7.80;99.90;;;;;;5020197;28;20312;-90
2022/03/16 01:27:27;;;;;;;84.18;35.00;;;7.80;99.90;;;;;;5020183;28;20270;-90
2022/03/16 01:29:58;;;;;;;78.03;34.60;;;7.90;99.90;;;;;;5018556;28;20208;-89
2022/03/16 01:32:24;;;;;;;82.18;35.60;;;7.30;99.90;;;;;;5017235;28;20763;-90
2022/03/16 01:34:50;;;;;;;86.47;38.93;;;;;;;;;;5014828;28;20190;-88
2022/03/16 01:37:18;;;;;;;82.25;36.97;;;7.90;99.90;;;;;;5019454;28;20523;-90
2022/03/16 01:39:44;;;;;;;80.60;35.78;;;9.80;99.90;;;;;;5017315;28;20182;-92
2022/03/16 01:42:17;;;;;;;90.57;37.33;;;;;;;;;;5025437;28;20215;-90
2022/03/16 01:44:45;;;;;;;89.25;37.75;;;7.80;99.90;;;;;;5025711;28;20212;-90
2022/03/16 01:47:11;;;;;;;88.75;34.67;;;;;;;;;;5025389;28;20261;-90
2022/03/16 01:49:37;;;;;;;91.18;38.70;;;7.60;99.90;;;;;;5025548;28;20676;-90
2022/03/16 01:52:06;;;;;;;97.83;38.50;;;10.20;99.90;;;;;;5023736;28;20225;-89
2022/03/16 01:54:33;;;;;;;87.47;39.17;;;7.70;99.90;;;;;;5024807;28;20178;-89
2022/03/16 01:56:59;;;;;;;84.30;36.00;;;;;;;;;;5024297;28;20708;-90
2022/03/16 01:59:25;;;;;;;99.85;38.03;;;7.80;99.90;;;;;;5024390;28;20287;-90
2022/03/16 02:02:10;;;;;;;96.73;39.13;;;7.70;99.90;;;;;;5022883;28;20201;-89
2022/03/16 02:04:43;;;;;;;93.15;40.30;;;7.70;99.90;;;;;;4978783;28;20219;-90
2022/03/16 02:14:51;;;;;;;103.60;39.88;;;7.90;99.90;;;;;;4980986;28;20215;-88
2022/03/16 02:17:19;;;;;;;94.18;37.03;;;9.70;99.90;;;;;;4949323;28;20672;-89
2022/03/16 02:19:44;;;;;;;89.60;38.97;;;;;;;;;;5009298;28;20251;-88
2022/03/16 02:22:14;;;;;;;97.87;38.13;;;7.90;99.90;;;;;;5026647;28;20304;-90
2022/03/16 02:31:27;;;;;;;85.72;36.88;;;;;;;;;;5042298;28;20185;-90
2022/03/16 02:34:02;;;;;;;100.05;38.35;;;7.90;99.90;;;;;;5014418;28;20170;-89
2022/03/16 02:36:35;;;;;;;100.43;36.67;;;6.60;99.90;;;;;;5014274;28;20556;-89
2022/03/16 02:39:03;;;;;;;86.63;37.55;;;7.80;99.90;;;;;;5021762;28;20212;-89
2022/03/16 02:41:30;;;;;;;77.70;35.75;;;7.80;99.90;;;;;;5040241;28;20243;-90
2022/03/16 02:43:56;;;;;;;84.68;35.42;;;;;;;;;;5041223;28;20259;-90
2022/03/16 02:46:36;;;;;;;92.70;36.88;;;7.80;99.90;;;;;;5024185;28;20186;-88
2022/03/16 02:49:03;;;;;;;84.50;35.72;;;8.10;99.90;;;;;;5024108;28;20618;-90
2022/03/16 02:51:28;;;;;;;77.78;35.03;;;;;;;;;;5022104;28;20178;-89
2022/03/16 02:53:54;;;;;;;71.67;33.60;;;7.80;99.90;;;;;;5011658;28;20174;-89
2022/03/16 02:56:20;;;;;;;82.07;35.43;;;7.80;99.90;;;;;;5040245;28;20451;-89
2022/03/16 02:58:45;;;;;;;74.70;36.37;;;;;;;;;;5018914;28;20225;-89
2022/03/16 03:01:11;;;;;;;72.50;35.70;;;;;;;;;;5018782;28;20568;-89
2022/03/16 03:03:37;;;;;;;72.37;36.10;;;7.70;99.90;;;;;;5037713;28;20509;-89
2022/03/16 03:06:03;;;;;;;65.93;34.23;;;;;;;;;;5042210;28;20904;-89
2022/03/16 03:08:29;;;;;;;68.47;33.90;;;7.60;99.90;;;;;;5015589;28;20175;-86
2022/03/16 03:10:55;;;;;;;65.28;34.30;;;7.70;99.90;;;;;;5011255;28;20547;-87
2022/03/16 03:13:20;;;;;;;73.20;33.73;;;7.60;99.90;;;;;;5032022;28;20206;-87
2022/03/16 03:15:46;;;;;;;65.73;33.90;;;7.60;99.90;;;;;;5022107;28;20188;-86
2022/03/16 03:18:11;;;;;;;71.63;33.20;;;8.50;99.90;;;;;;5036736;28;20243;-87
2022/03/16 03:20:38;;;;;;;66.10;34.60;;;7.50;99.90;;;;;;5018508;28;20198;-86
2022/03/16 03:23:04;;;;;;;62.47;32.75;;;7.50;99.90;;;;;;5015056;28;20282;-86
2022/03/16 03:25:29;;;;;;;67.50;34.67;;;7.50;99.90;;;;;;5019715;28;20235;-87
2022/03/16 03:27:55;;;;;;;70.67;35.47;;;7.50;99.90;;;;;;5036376;28;20204;-89
2022/03/16 03:30:20;;;;;;;73.27;33.93;;;7.40;99.90;;;;;;5020206;28;20208;-88
2022/03/16 03:32:46;;;;;;;63.50;30.33;;;7.40;99.90;;;;;;5015792;28;20641;-88
2022/03/16 03:35:11;;;;;;;68.47;34.17;;;7.50;99.90;;;;;;5019965;28;20188;-87
2022/03/16 03:37:37;;;;;;;75.57;34.00;;;7.50;99.90;;;;;;5018721;28;20353;-87
2022/03/16 03:40:04;;;;;;;68.63;33.20;;;9.80;99.90;;;;;;5018957;28;20520;-88
2022/03/16 03:42:30;;;;;;;65.22;34.00;;;7.60;99.90;;;;;;5003773;28;20209;-88
2022/03/16 03:44:55;;;;;;;64.97;32.50;;;7.70;99.90;;;;;;5020707;28;20208;-88
2022/03/16 03:47:22;;;;;;;65.63;33.13;;;7.70;99.90;;;;;;5017114;28;20831;-87
2022/03/16 03:49:48;;;;;;;67.00;35.40;;;7.70;99.90;;;;;;5014372;28;20682;-87
2022/03/16 03:52:13;;;;;;;59.93;32.43;;;10.10;99.90;;;;;;5040018;28;20193;-87
2022/03/16 03:54:40;;;;;;;73.63;34.07;;;;;;;;;;5025306;28;20247;-88
2022/03/16 03:57:06;;;;;;;65.03;30.23;;;7.30;99.90;;;;;;5020204;28;20958;-87
2022/03/16 03:59:32;;;;;;;72.30;31.30;;;;;;;;;;5036967;28;20660;-87
2022/03/16 04:02:00;;;;;;;57.17;29.77;;;;;;;;;;5019904;28;20193;-89
2022/03/16 04:04:31;;;;;;;61.25;32.03;;;7.20;99.90;;;;;;5019625;28;20456;-87
2022/03/16 04:07:03;;;;;;;58.33;30.52;;;;;;;;;;5037164;28;20164;-87
2022/03/16 04:09:29;;;;;;;54.58;30.30;;;7.10;99.90;;;;;;5019316;28;20176;-88
2022/03/16 04:11:55;;;;;;;66.67;30.83;;;;;;;;;;5035787;28;20257;-87
2022/03/16 04:14:22;;;;;;;67.40;32.67;;;7.00;99.90;;;;;;5019729;28;20212;-87
2022/03/16 04:16:48;;;;;;;63.65;30.48;;;;;;;;;;5035744;28;20416;-87
2022/03/16 04:19:14;;;;;;;63.30;31.30;;;;;;;;;;5036743;28;20174;-86
2022/03/16 04:21:40;;;;;;;63.30;31.50;;;;;;;;;;5038796;28;20212;-86
2022/03/16 04:24:06;;;;;;;62.83;31.73;;;6.90;99.90;;;;;;5020586;28;20358;-87
2022/03/16 04:26:32;;;;;;;65.78;31.20;;;;;;;;;;5020569;28;20416;-87
2022/03/16 04:28:58;;;;;;;57.45;30.70;;;;;;;;;;5019898;28;20642;-87
2022/03/16 04:31:24;;;;;;;65.05;32.47;;;;;;;;;;5038400;28;20512;-87
2022/03/16 04:33:51;;;;;;;63.03;29.50;;;;;;;;;;5020080;28;20240;-87
2022/03/16 04:36:17;;;;;;;58.80;31.80;;;;;;;;;;5021080;28;20177;-88
2022/03/16 04:38:43;;;;;;;58.20;29.63;;;7.00;99.90;;;;;;5019975;28;20220;-89
2022/03/16 04:41:10;;;;;;;62.35;30.88;;;;;;;;;;5036761;28;20177;-88
2022/03/16 04:43:36;;;;;;;68.30;32.03;;;;;;;;;;5021357;28;20302;-88
2022/03/16 04:46:04;;;;;;;59.17;30.02;;;;;;;;;;5023731;28;20169;-88
2022/03/16 04:48:31;;;;;;;55.25;30.38;;;6.90;99.90;;;;;;5024510;28;20174;-87
2022/03/16 04:50:57;;;;;;;59.70;30.08;;;;;;;;;;5007518;28;20227;-87
2022/03/16 04:53:34;;;;;;;63.23;31.87;;;6.80;99.90;;;;;;5003511;28;20237;-88
2022/03/16 04:56:00;;;;;;;58.45;32.03;;;5.90;99.90;;;;;;5018816;28;20906;-87
2022/03/16 04:58:26;;;;;;;59.13;29.80;;;;;;;;;;5001292;28;20182;-88
2022/03/16 05:00:52;;;;;;;61.80;32.08;;;;;;;;;;5001886;28;20213;-88
2022/03/16 05:03:18;;;;;;;58.88;32.42;;;;;;;;;;5007035;28;20213;-87
2022/03/16 05:05:53;;;;;;;65.20;33.27;;;6.80;99.90;;;;;;5021672;28;20177;-87
2022/03/16 05:08:22;;;;;;;57.17;29.02;;;6.80;99.90;;;;;;5039378;28;20400;-88
2022/03/16 05:11:05;;;;;;;59.10;30.50;;;;;;;;;;5037341;28;20559;-89
2022/03/16 05:13:31;;;;;;;56.22;28.50;;;;;;;;;;5021003;28;20222;-87
2022/03/16 05:15:57;;;;;;;53.30;29.33;;;;;;;;;;5017072;28;20186;-83
2022/03/16 05:18:26;;;;;;;55.75;29.60;;;6.60;99.90;;;;;;5021965;28;20193;-83
2022/03/16 05:20:52;;;;;;;58.10;32.05;;;6.60;99.90;;;;;;5013616;28;20202;-83
2022/03/16 05:23:17;;;;;;;65.47;28.50;;;6.70;99.90;;;;;;5028544;28;20206;-84
2022/03/16 05:25:43;;;;;;;53.70;28.03;;;6.70;99.90;;;;;;5031704;28;20181;-84
2022/03/16 05:28:08;;;;;;;58.17;30.00;;;6.70;99.90;;;;;;5034086;28;20170;-83
2022/03/16 05:30:34;;;;;;;66.10;32.77;;;6.80;99.90;;;;;;5017965;28;20213;-84
2022/03/16 05:33:00;;;;;;;55.57;29.67;;;6.70;99.90;;;;;;5036736;28;20293;-85
2022/03/16 05:35:27;;;;;;;49.65;28.77;;;6.80;99.90;;;;;;5014326;28;20186;-85
2022/03/16 05:37:53;;;;;;;55.28;28.23;;;6.80;99.90;;;;;;5033991;28;20197;-84
2022/03/16 05:40:19;;;;;;;60.15;30.25;;;6.90;99.90;;;;;;5016004;28;20189;-83
2022/03/16 05:42:45;;;;;;;57.28;28.70;;;6.90;99.90;;;;;;5032464;28;20209;-84
2022/03/16 05:45:11;;;;;;;55.03;29.07;;;6.90;99.90;;;;;;5015060;28;20663;-84
2022/03/16 05:47:37;;;;;;;56.13;29.47;;;7.00;99.90;;;;;;5015950;28;20440;-84
2022/03/16 05:50:04;;;;;;;55.85;27.05;;;7.00;99.90;;;;;;5037041;28;20577;-84
2022/03/16 05:52:31;;;;;;;57.20;29.77;;;7.00;99.90;;;;;;5036269;28;20718;-84
2022/03/16 05:54:58;;;;;;;51.95;28.52;;;7.00;99.90;;;;;;5019970;28;20223;-85
2022/03/16 05:57:24;;;;;;;59.58;29.02;;;6.90;99.90;;;;;;5020776;28;20178;-84
2022/03/16 05:59:50;;;;;;;60.45;30.55;;;6.90;99.90;;;;;;5035794;28;20186;-84
2022/03/16 06:02:16;;;;;;;54.80;27.30;;;7.00;99.90;;;;;;5032384;28;20201;-84
2022/03/16 06:04:43;;;;;;;50.70;28.57;;;7.00;99.90;;;;;;5033673;28;20452;-84
2022/03/16 06:07:10;;;;;;;53.45;28.00;;;6.90;99.90;;;;;;5032491;28;20561;-85
2022/03/16 06:09:35;;;;;;;53.03;29.05;;;7.00;99.90;;;;;;5032449;28;20248;-84
2022/03/16 06:12:02;;;;;;;47.73;26.60;;;7.00;99.90;;;;;;5032441;28;20190;-85
2022/03/16 06:14:29;;;;;;;47.13;26.17;;;7.00;99.90;;;;;;5005161;23;20235;-82
2022/03/16 06:16:54;;;;;;;62.88;28.88;;;7.00;99.90;;;;;;4979678;28;20187;-82
2022/03/16 06:19:20;;;;;;;51.77;27.80;;;7.00;99.90;;;;;;4968588;28;20180;-82
2022/03/16 06:21:46;;;;;;;56.33;28.47;;;7.00;99.90;;;;;;4968835;28;20646;-83
2022/03/16 06:24:12;;;;;;;47.40;26.65;;;7.10;99.90;;;;;;4964245;28;20485;-82
2022/03/16 06:26:38;;;;;;;56.13;26.37;;;7.10;99.90;;;;;;4975506;28;20195;-83
2022/03/16 06:29:04;;;;;;;48.33;27.58;;;7.10;99.90;;;;;;4973306;28;20191;-82
2022/03/16 06:31:30;;;;;;;54.88;26.90;;;7.20;99.90;;;;;;4972246;28;20245;-82
2022/03/16 06:33:55;;;;;;;50.77;27.03;;;7.20;99.90;;;;;;4966239;28;20203;-83
2022/03/16 06:36:21;;;;;;;47.97;26.17;;;7.30;99.90;;;;;;4966378;28;20191;-83
2022/03/16 06:38:47;;;;;;;52.60;27.30;;;7.30;99.90;;;;;;4969137;28;20233;-82
2022/03/16 06:41:12;;;;;;;62.13;32.77;;;7.40;99.90;;;;;;4977289;28;20183;-82
2022/03/16 06:43:38;;;;;;;52.20;29.40;;;7.40;99.90;;;;;;4981951;28;20224;-83
2022/03/16 06:46:03;;;;;;;48.70;26.17;;;7.50;99.90;;;;;;4974117;28;20199;-84
2022/03/16 06:48:29;;;;;;;49.63;26.83;;;7.50;99.90;;;;;;4970552;28;20203;-82
2022/03/16 06:50:54;;;;;;;47.20;26.07;;;7.60;99.90;;;;;;4963858;28;20191;-83
2022/03/16 06:53:20;;;;;;;48.90;25.93;;;7.80;99.90;;;;;;4969999;28;20210;-83
2022/03/16 06:55:46;;;;;;;49.23;28.27;;;7.90;99.90;;;;;;4973537;28;20208;-79
2022/03/16 06:58:11;;;;;;;52.17;28.17;;;8.00;99.90;;;;;;4966852;28;20212;-82
2022/03/16 07:00:37;;;;;;;44.77;26.87;;;8.00;99.90;;;;;;4987236;28;20742;-80
2022/03/16 07:03:05;;;;;;;46.37;25.40;;;8.20;99.90;;;;;;4970756;28;20230;-82
2022/03/16 07:05:35;;;;;;;48.45;25.15;;;8.20;99.90;;;;;;4959436;28;20219;-83
2022/03/16 07:08:04;;;;;;;48.55;26.00;;;8.20;99.90;;;;;;4966679;28;20195;-81
2022/03/16 07:10:31;;;;;;;45.90;26.67;;;8.10;99.90;;;;;;4977122;28;20258;-82
2022/03/16 07:12:57;;;;;;;47.17;25.05;;;;;;;;;;4968939;28;20245;-83
2022/03/16 07:15:23;;;;;;;53.80;26.00;;;8.30;99.90;;;;;;4964404;28;20203;-80
2022/03/16 07:17:48;;;;;;;45.37;23.93;;;8.40;99.90;;;;;;4969440;28;20838;-80
2022/03/16 07:20:14;;;;;;;46.97;26.43;;;8.50;99.90;;;;;;4963448;28;20455;-80
2022/03/16 07:22:40;;;;;;;50.30;26.80;;;8.50;99.90;;;;;;4973168;28;20241;-83
2022/03/16 07:25:09;;;;;;;52.17;27.97;;;8.60;99.90;;;;;;4968504;28;20261;-81
2022/03/16 07:27:41;;;;;;;40.95;25.08;;;8.60;99.90;;;;;;4971551;28;20463;-81
2022/03/16 07:30:08;;;;;;;53.08;27.27;;;8.60;99.90;;;;;;4968850;28;20183;-81
2022/03/16 07:32:41;;;;;;;43.58;24.85;;;8.40;99.90;;;;;;4969767;28;20294;-81
2022/03/16 07:35:11;;;;;;;48.47;27.38;;;8.60;99.90;;;;;;4967660;28;20291;-81
2022/03/16 07:37:38;;;;;;;44.30;25.60;;;8.70;99.90;;;;;;4995003;28;20180;-81
2022/03/16 07:40:06;;;;;;;43.97;25.20;;;8.70;99.90;;;;;;4973388;28;20183;-82
2022/03/16 07:42:32;;;;;;;51.42;28.75;;;8.70;99.90;;;;;;4961285;28;20202;-81
2022/03/16 07:44:58;;;;;;;45.33;25.77;;;8.70;99.90;;;;;;4963983;28;20219;-81
2022/03/16 07:47:27;;;;;;;48.95;25.23;;;8.70;99.90;;;;;;4960587;28;20571;-81
2022/03/16 07:49:53;;;;;;;45.63;24.90;;;8.70;99.90;;;;;;4966373;28;20273;-81
2022/03/16 07:52:22;;;;;;;47.83;23.50;;;8.80;99.90;;;;;;4969304;28;20221;-80
2022/03/16 07:54:48;;;;;;;41.80;24.23;;;8.90;99.90;;;;;;4960422;28;20203;-81
2022/03/16 07:57:13;;;;;;;37.53;22.87;;;9.00;99.90;;;;;;4969217;28;20273;-81
2022/03/16 07:59:38;;;;;;;39.37;23.17;;;9.10;99.90;;;;;;4967109;28;20187;-81
2022/03/16 08:02:04;;;;;;;48.57;24.17;;;9.10;99.90;;;;;;4968405;28;20785;-81
2022/03/16 08:04:29;;;;;;;39.03;23.97;;;9.10;99.90;;;;;;4965899;28;20216;-80
2022/03/16 08:06:55;;;;;;;39.80;22.57;;;9.20;99.90;;;;;;4971236;28;20192;-81
2022/03/16 08:09:21;;;;;;;48.13;24.20;;;9.20;99.90;;;;;;4974016;28;20250;-82
2022/03/16 08:11:46;;;;;;;43.23;22.57;;;9.10;99.90;;;;;;4975502;28;20188;-81
2022/03/16 08:14:12;;;;;;;38.60;21.80;;;9.10;99.90;;;;;;4971093;28;20211;-81
2022/03/16 08:16:38;;;;;;;43.88;22.67;;;9.10;99.90;;;;;;4967821;28;20190;-81
2022/03/16 08:19:04;;;;;;;35.00;20.70;;;9.00;99.90;;;;;;4974477;28;20214;-81
2022/03/16 08:21:29;;;;;;;35.47;21.30;;;8.80;99.90;;;;;;4975607;28;20805;-80
2022/03/16 08:23:55;;;;;;;40.67;21.80;;;8.70;99.90;;;;;;4980808;28;20522;-83
2022/03/16 08:26:21;;;;;;;35.90;20.13;;;8.70;99.90;;;;;;4972410;28;20172;-79
2022/03/16 08:28:47;;;;;;;44.33;23.80;;;8.70;99.90;;;;;;4985289;28;20192;-80
2022/03/16 08:31:14;;;;;;;36.70;19.00;;;8.60;99.90;;;;;;4972813;28;20307;-83
2022/03/16 08:33:40;;;;;;;38.08;20.98;;;8.70;99.90;;;;;;4977644;28;20206;-82
2022/03/16 08:36:07;;;;;;;37.05;21.13;;;8.80;99.90;;;;;;4969665;28;20205;-80
2022/03/16 08:38:36;;;;;;;34.72;19.38;;;8.90;99.90;;;;;;4974964;28;20180;-80
2022/03/16 08:41:03;;;;;;;37.15;20.90;;;9.00;99.90;;;;;;4974201;28;20282;-80
2022/03/16 08:43:28;;;;;;;33.10;20.65;;;9.00;99.90;;;;;;4965454;28;20287;-82
2022/03/16 08:45:54;;;;;;;32.90;20.13;;;9.10;99.90;;;;;;4964544;28;20280;-80
2022/03/16 08:48:19;;;;;;;38.83;22.57;;;9.10;99.90;;;;;;4968105;28;20186;-80
2022/03/16 08:50:45;;;;;;;32.30;20.40;;;9.10;99.90;;;;;;4967116;28;20210;-80
2022/03/16 08:53:10;;;;;;;34.80;19.00;;;9.00;99.90;;;;;;4971219;28;20262;-80
2022/03/16 08:55:37;;;;;;;36.77;20.47;;;9.10;99.90;;;;;;4972488;28;20260;-81
2022/03/16 08:58:02;;;;;;;34.22;19.85;;;9.00;99.90;;;;;;4968155;28;20259;-80
2022/03/16 09:00:28;;;;;;;43.27;21.30;;;9.10;99.90;;;;;;4967080;28;20283;-80
2022/03/16 09:02:53;;;;;;;48.57;26.67;;;9.10;99.90;;;;;;4968954;28;20188;-80
2022/03/16 09:05:19;;;;;;;38.90;21.27;;;9.30;99.90;;;;;;4968331;28;20214;-80
2022/03/16 09:07:44;;;;;;;41.87;21.20;;;9.40;99.90;;;;;;4976445;28;20187;-83
2022/03/16 09:10:10;;;;;;;33.47;19.70;;;9.60;99.90;;;;;;4973144;28;20699;-81
2022/03/16 09:12:36;;;;;;;37.47;21.27;;;9.60;99.90;;;;;;4976473;28;20234;-81
2022/03/16 09:15:02;;;;;;;35.40;20.70;;;9.80;99.90;;;;;;4965314;28;20238;-80
2022/03/16 09:17:30;;;;;;;29.40;17.85;;;9.80;99.90;;;;;;4969296;28;20306;-80
2022/03/16 09:19:56;;;;;;;34.17;20.15;;;9.80;99.90;;;;;;4971669;28;20206;-81
2022/03/16 09:22:23;;;;;;;32.70;19.17;;;9.90;99.90;;;;;;4973710;28;20179;-80
2022/03/16 09:24:48;;;;;;;34.30;21.50;;;10.00;99.90;;;;;;4972988;28;20214;-81
2022/03/16 09:27:16;;;;;;;35.03;19.90;;;10.20;99.90;;;;;;4972392;28;20548;-81
2022/03/16 09:29:43;;;;;;;35.42;20.13;;;10.40;99.90;;;;;;4970406;28;20175;-81
2022/03/16 09:32:10;;;;;;;35.45;19.58;;;10.60;99.90;;;;;;4971964;28;20263;-80
2022/03/16 09:34:36;;;;;;;32.75;18.35;;;10.80;99.90;;;;;;4982286;28;20695;-81
2022/03/16 09:37:02;;;;;;;36.92;20.38;;;10.80;99.90;;;;;;4969919;28;20640;-80
2022/03/16 09:39:28;;;;;;;33.63;18.67;;;10.90;99.90;;;;;;4971560;28;20183;-82
2022/03/16 09:41:55;;;;;;;36.40;17.90;;;11.10;99.90;;;;;;4968097;28;20442;-81
2022/03/16 09:44:23;;;;;;;31.95;19.10;;;11.30;99.90;;;;;;4964229;28;20214;-82
2022/03/16 09:46:52;;;;;;;28.30;17.70;;;11.30;99.90;;;;;;4973101;28;20191;-82
2022/03/16 09:49:17;;;;;;;27.25;15.82;;;11.20;99.90;;;;;;4973014;28;20179;-82
2022/03/16 09:51:43;;;;;;;37.57;21.70;;;11.00;99.90;;;;;;4968390;28;20199;-82
2022/03/16 09:54:09;;;;;;;33.60;18.83;;;11.10;99.90;;;;;;4969905;28;20218;-82
2022/03/16 09:56:34;;;;;;;32.87;18.87;;;11.10;99.90;;;;;;4970649;28;20565;-82
2022/03/16 09:59:00;;;;;;;30.17;19.20;;;11.20;99.90;;;;;;4960340;28;20256;-82
2022/03/16 10:01:26;;;;;;;31.77;19.43;;;11.10;99.90;;;;;;4977450;28;20533;-81
2022/03/16 10:03:52;;;;;;;31.70;18.33;;;11.00;99.90;;;;;;4968906;28;20210;-80
2022/03/16 10:06:22;;;;;;;30.10;17.90;;;10.90;99.90;;;;;;4971207;28;20450;-83
2022/03/16 10:13:13;;;;;;;35.58;20.80;;;11.00;99.90;;;;;;4970045;28;20258;-80
2022/03/16 10:14:18;;;;;;;29.65;18.85;;;11.30;99.90;;;;;;4966958;28;20226;-80
2022/03/16 10:19:48;;;;;;;32.38;18.33;;;11.50;99.90;;;;;;4967422;28;20389;-80
2022/03/16 10:22:28;;;;;;;34.97;19.50;;;11.70;99.90;;;;;;4969632;28;20600;-81
2022/03/16 10:25:05;;;;;;;31.30;17.20;;;11.90;99.90;;;;;;4966769;28;20294;-80
2022/03/16 10:27:39;;;;;;;29.88;17.95;;;11.80;99.90;;;;;;4969089;28;20250;-81
2022/03/16 10:30:07;;;;;;;33.25;18.17;;;12.10;99.90;;;;;;4975108;28;20183;-80
2022/03/16 10:32:32;;;;;;;27.77;17.23;;;12.40;99.90;;;;;;4971908;28;20239;-79
2022/03/16 10:35:06;;;;;;;27.50;17.50;;;12.50;99.90;;;;;;4979591;28;20920;-80
2022/03/16 10:37:35;;;;;;;26.10;16.10;;;12.50;99.90;;;;;;4981633;28;20260;-80
2022/03/16 10:40:04;;;;;;;25.90;15.68;;;12.40;99.90;;;;;;4983953;28;21235;-83
2022/03/16 10:48:20;;;;;;;23.77;15.48;;;12.60;99.90;;;;;;4970960;28;20234;-82
2022/03/16 10:50:48;;;;;;;29.88;17.48;;;13.00;99.90;;;;;;4965328;28;20179;-82
2022/03/16 10:53:16;;;;;;;24.85;15.38;;;13.00;99.90;;;;;;4963057;28;20183;-82
2022/03/16 10:55:44;;;;;;;27.42;15.00;;;13.00;99.90;;;;;;4962344;28;20743;-80
2022/03/16 10:58:12;;;;;;;28.10;16.88;;;12.80;99.90;;;;;;4969333;28;20634;-80
2022/03/16 11:00:39;;;;;;;30.45;17.80;;;12.90;99.90;;;;;;4977304;28;20678;-80
2022/03/16 11:03:07;;;;;;;21.50;12.95;;;13.00;99.90;;;;;;4964865;28;22149;-80
2022/03/16 11:05:36;;;;;;;27.58;17.20;;;12.70;99.90;;;;;;4967482;28;20213;-81
2022/03/16 11:08:09;;;;;;;31.58;16.83;;;12.70;99.90;;;;;;4967564;28;20242;-80
2022/03/16 11:10:39;;;;;;;28.20;17.55;;;12.90;99.90;;;;;;4962823;28;20176;-81
2022/03/16 11:15:55;;;;;;;29.00;17.95;;;13.40;99.90;;;;;;4975291;28;20735;-80
2022/03/16 11:18:22;;;;;;;25.95;16.98;;;13.70;99.90;;;;;;4969609;28;20199;-81
2022/03/16 11:20:50;;;;;;;25.80;15.77;;;14.00;99.90;;;;;;4964917;28;20199;-81
2022/03/16 11:26:35;;;;;;;28.07;16.33;;;14.20;99.90;;;;;;4976812;28;20271;-80
2022/03/16 11:29:23;;;;;;;23.55;14.48;;;14.00;99.90;;;;;;4974848;28;21365;-81
2022/03/16 11:31:48;;;;;;;28.70;16.50;;;13.60;99.90;;;;;;4969932;28;21934;-80
2022/03/16 11:34:21;;;;;;;26.40;16.90;;;13.50;99.90;;;;;;4969715;28;20215;-81
2022/03/16 11:37:03;;;;;;;28.73;16.25;;;13.60;99.90;;;;;;4965969;28;20187;-80
2022/03/16 11:39:44;;;;;;;28.70;17.92;;;13.60;99.90;;;;;;4971896;28;20192;-80
2022/03/16 11:42:11;;;;;;;23.98;15.38;;;13.60;99.90;;;;;;4974569;28;20188;-81
2022/03/16 11:44:39;;;;;;;27.63;17.37;;;13.60;99.90;;;;;;4970021;28;20215;-80
2022/03/16 11:47:10;;;;;;;24.27;16.67;;;13.90;99.90;;;;;;4970465;28;20442;-81
2022/03/16 11:50:03;;;;;;;24.47;16.00;;;13.90;99.90;;;;;;4968399;28;20848;-80
2022/03/16 11:53:01;;;;;;;22.83;15.45;;;13.70;99.90;;;;;;4982044;28;20443;-80
2022/03/16 11:55:50;;;;;;;23.60;15.77;;;13.80;99.90;;;;;;4972308;28;20196;-80
2022/03/16 11:58:16;;;;;;;25.92;16.45;;;13.80;99.90;;;;;;4972467;28;20443;-81
2022/03/16 12:00:44;;;;;;;26.08;15.30;;;13.60;99.90;;;;;;4972551;28;20179;-80
2022/03/16 12:03:20;;;;;;;26.88;17.02;;;13.20;99.90;;;;;;4966426;28;20530;-83
2022/03/16 12:05:58;;;;;;;23.98;15.95;;;13.20;99.90;;;;;;4966309;28;20207;-82
2022/03/16 12:08:29;;;;;;;23.60;14.15;;;13.00;99.90;;;;;;4971404;28;20722;-80
2022/03/16 12:12:51;;;;;;;21.48;14.73;;;12.90;99.90;;;;;;4971729;28;20475;-80
2022/03/16 12:13:45;;;;;;;28.48;16.77;;;12.90;99.90;;;;;;4970175;28;20299;-82
2022/03/16 12:16:17;;;;;;;23.30;14.85;;;13.10;99.90;;;;;;5000301;23;20237;-83
2022/03/16 12:18:46;;;;;;;23.80;15.00;;;13.40;99.90;;;;;;5006637;28;20174;-78
2022/03/16 12:21:13;;;;;;;23.27;15.00;;;13.90;99.90;;;;;;5006507;28;20433;-83
2022/03/16 12:23:59;;;;;;;22.30;14.00;;;14.40;99.90;;;;;;4989019;28;20452;-81
2022/03/16 12:26:30;;;;;;;26.27;15.90;;;14.60;99.90;;;;;;4993917;28;20541;-81
2022/03/16 12:29:06;;;;;;;27.43;16.43;;;14.70;99.90;;;;;;4961838;28;20992;-83
2022/03/16 12:31:34;;;;;;;25.27;15.67;;;14.80;99.90;;;;;;4977382;28;20423;-83
2022/03/16 12:34:00;;;;;;;27.43;13.80;;;14.50;99.90;;;;;;4983253;28;20486;-85
2022/03/16 12:36:33;;;;;;;22.27;14.17;;;14.50;99.90;;;;;;4967287;28;20543;-83
2022/03/16 12:39:05;;;;;;;26.33;16.07;;;14.20;99.90;;;;;;4982209;28;20806;-82
2022/03/16 12:44:18;;;;;;;29.38;16.17;;;13.60;99.90;;;;;;4981050;28;20458;-82
2022/03/16 12:47:07;;;;;;;27.23;14.98;;;13.30;99.90;;;;;;4979309;28;20667;-82
2022/03/16 12:49:43;;;;;;;25.00;13.30;;;13.30;99.90;;;;;;4978764;28;20212;-81
2022/03/16 12:52:10;;;;;;;22.40;14.15;;;13.20;99.90;;;;;;4963982;28;20663;-82
2022/03/16 12:54:37;;;;;;;21.48;15.32;;;13.20;99.90;;;;;;4963568;28;20207;-84
2022/03/16 12:57:11;;;;;;;18.77;13.45;;;13.20;99.90;;;;;;4979219;28;20239;-82
2022/03/16 12:59:39;;;;;;;21.00;14.03;;;13.40;99.90;;;;;;4965975;28;20661;-83
2022/03/16 13:02:07;;;;;;;27.23;13.87;;;13.50;99.90;;;;;;4976964;28;20434;-83
2022/03/16 13:04:33;;;;;;;22.57;13.97;;;13.40;99.90;;;;;;4980426;28;20753;-84
2022/03/16 13:07:00;;;;;;;22.08;15.52;;;13.60;99.90;;;;;;4964002;28;20446;-82
2022/03/16 13:09:31;;;;;;;21.70;14.07;;;13.60;99.90;;;;;;4969889;28;20179;-85
2022/03/16 13:12:15;;;;;;;26.37;15.23;;;13.90;99.90;;;;;;4984617;28;20180;-82
2022/03/16 13:14:44;;;;;;;30.52;14.25;;;13.90;99.90;;;;;;4981488;28;20516;-81
2022/03/16 13:17:13;;;;;;;25.37;14.37;;;13.90;99.90;;;;;;4982371;28;20188;-82
2022/03/16 13:19:40;;;;;;;24.73;13.70;;;13.80;99.90;;;;;;4979278;28;20438;-83
2022/03/16 13:22:09;;;;;;;24.73;15.47;;;13.80;99.90;;;;;;4989628;28;20951;-82
2022/03/16 13:24:37;;;;;;;24.97;14.03;;;13.90;99.90;;;;;;4984843;28;20547;-84
2022/03/16 13:27:05;;;;;;;24.23;13.27;;;13.90;99.90;;;;;;4968359;28;20427;-82
2022/03/16 13:29:34;;;;;;;23.50;13.33;;;13.60;99.90;;;;;;4987218;28;20547;-82
2022/03/16 13:32:02;;;;;;;20.33;12.70;;;13.70;99.90;;;;;;4974438;28;20429;-83
2022/03/16 13:34:31;;;;;;;21.55;13.98;;;13.60;99.90;;;;;;4969323;28;21006;-85
2022/03/16 13:36:57;;;;;;;21.92;13.25;;;13.70;99.90;;;;;;4978312;28;20198;-83
2022/03/16 13:39:25;;;;;;;28.25;14.25;;;13.40;99.90;;;;;;4979931;28;20184;-81
2022/03/16 13:42:13;;;;;;;25.55;13.90;;;13.40;99.90;;;;;;4982150;28;20192;-81
2022/03/16 13:44:40;;;;;;;22.40;12.80;;;13.40;99.90;;;;;;4980579;28;20207;-85